createdAt,value
2017-09-26T00:00:59.787Z,28.10
2017-09-26T00:03:26.205Z,27.90
2017-09-26T00:05:52.794Z,26.13
2017-09-26T00:08:19.961Z,27.90
2017-09-26T00:10:46.375Z,25.47
2017-09-26T00:13:13.583Z,31.07
2017-09-26T00:15:39.991Z,26.37
2017-09-26T00:18:06.571Z,27.87
2017-09-26T00:20:33.020Z,28.10
2017-09-26T00:22:59.492Z,27.10
2017-09-26T00:25:25.957Z,27.20
2017-09-26T00:27:52.448Z,26.00
2017-09-26T00:30:18.892Z,29.40
2017-09-26T00:32:45.351Z,31.57
2017-09-26T00:35:11.857Z,33.63
2017-09-26T00:37:38.312Z,35.00
2017-09-26T00:40:04.801Z,30.47
2017-09-26T00:42:32.086Z,32.20
2017-09-26T00:44:58.523Z,29.73
2017-09-26T00:47:25.010Z,30.83
2017-09-26T00:49:52.212Z,32.60
2017-09-26T00:52:18.712Z,29.40
2017-09-26T00:54:45.886Z,28.50
2017-09-26T00:57:12.368Z,29.50
2017-09-26T00:59:38.835Z,27.80
2017-09-26T01:02:05.295Z,33.27
2017-09-26T01:04:31.767Z,32.13
2017-09-26T01:07:01.055Z,34.30
2017-09-26T01:09:27.551Z,26.77
2017-09-26T01:11:53.983Z,29.30
2017-09-26T01:14:20.498Z,28.50
2017-09-26T01:16:46.947Z,28.57
2017-09-26T01:19:13.376Z,30.37
2017-09-26T01:21:39.939Z,33.40
2017-09-26T01:24:06.434Z,32.60
2017-09-26T01:26:32.891Z,33.13
2017-09-26T01:28:59.348Z,33.30
2017-09-26T01:31:25.825Z,34.70
2017-09-26T01:33:53.035Z,32.57
2017-09-26T01:36:19.501Z,32.50
2017-09-26T01:38:46.736Z,32.20
2017-09-26T01:41:19.131Z,31.97
2017-09-26T01:43:46.496Z,30.93
2017-09-26T01:46:12.963Z,30.90
2017-09-26T01:48:39.523Z,32.23
2017-09-26T01:51:05.999Z,29.40
2017-09-26T01:53:32.458Z,31.33
2017-09-26T01:55:58.935Z,31.10
2017-09-26T02:01:25.175Z,31.70
2017-09-26T02:03:51.596Z,32.70
2017-09-26T02:06:18.242Z,34.40
2017-09-26T02:08:44.747Z,29.17
2017-09-26T02:11:11.204Z,34.13
2017-09-26T02:13:37.655Z,36.70
2017-09-26T02:16:04.284Z,35.90
2017-09-26T02:18:30.734Z,35.20
2017-09-26T02:20:57.931Z,32.73
2017-09-26T02:23:24.435Z,30.77
2017-09-26T02:25:51.015Z,30.17
2017-09-26T02:28:17.439Z,31.73
2017-09-26T02:30:44.001Z,34.00
2017-09-26T02:33:10.457Z,32.43
2017-09-26T02:35:37.650Z,31.33
2017-09-26T02:38:04.067Z,34.10
2017-09-26T02:40:30.692Z,33.37
2017-09-26T02:42:57.875Z,32.50
2017-09-26T02:45:24.307Z,34.03
2017-09-26T02:47:50.811Z,29.50
2017-09-26T02:50:17.243Z,33.80
2017-09-26T02:52:43.691Z,31.40
2017-09-26T02:55:10.120Z,36.50
2017-09-26T02:57:36.552Z,38.13
2017-09-26T03:00:03.036Z,35.50
2017-09-26T03:02:29.463Z,35.50
2017-09-26T03:04:56.015Z,30.73
2017-09-26T03:07:22.468Z,33.90
2017-09-26T03:09:49.675Z,33.07
2017-09-26T03:12:16.164Z,32.00
2017-09-26T03:14:42.627Z,33.30
2017-09-26T03:17:09.062Z,34.33
2017-09-26T03:19:35.491Z,35.33
2017-09-26T03:22:01.947Z,34.57
2017-09-26T03:24:28.429Z,35.90
2017-09-26T03:26:54.978Z,35.63
2017-09-26T03:29:21.420Z,32.90
2017-09-26T03:31:47.867Z,32.10
2017-09-26T03:34:14.269Z,33.67
2017-09-26T03:36:40.723Z,32.97
2017-09-26T03:39:07.182Z,33.93
2017-09-26T03:41:33.615Z,33.00
2017-09-26T03:44:00.069Z,30.83
2017-09-26T03:46:26.483Z,32.17
2017-09-26T03:48:52.947Z,31.30
2017-09-26T03:51:20.103Z,34.50
2017-09-26T03:53:47.303Z,37.03
2017-09-26T03:56:13.766Z,34.90
2017-09-26T03:58:40.229Z,32.77
2017-09-26T04:01:06.711Z,36.40
2017-09-26T04:03:33.180Z,38.73
2017-09-26T04:06:00.359Z,40.10
2017-09-26T04:08:26.918Z,34.87
2017-09-26T04:10:53.338Z,34.33
2017-09-26T04:13:19.777Z,36.03
2017-09-26T04:15:46.215Z,35.63
2017-09-26T04:18:12.775Z,37.53
2017-09-26T04:20:39.199Z,35.67
2017-09-26T04:23:05.634Z,36.30
2017-09-26T04:25:32.931Z,32.90
2017-09-26T04:27:59.355Z,40.87
2017-09-26T04:30:26.572Z,38.83
2017-09-26T04:32:52.998Z,40.93
2017-09-26T04:35:19.438Z,40.23
2017-09-26T04:37:45.855Z,40.90
2017-09-26T04:40:12.266Z,44.67
2017-09-26T04:42:38.719Z,38.50
2017-09-26T04:45:05.206Z,44.97
2017-09-26T04:47:31.662Z,42.90
2017-09-26T04:49:58.095Z,41.67
2017-09-26T04:52:24.659Z,38.20
2017-09-26T04:54:51.090Z,36.77
2017-09-26T04:57:17.531Z,41.13
2017-09-26T04:59:44.125Z,39.17
2017-09-26T05:02:10.611Z,43.37
2017-09-26T05:04:37.062Z,42.67
2017-09-26T05:07:04.263Z,42.30
2017-09-26T05:09:30.807Z,46.00
2017-09-26T05:11:57.271Z,43.43
2017-09-26T05:14:23.703Z,40.40
2017-09-26T05:16:50.158Z,40.20
2017-09-26T05:19:16.571Z,40.40
2017-09-26T05:21:43.730Z,40.47
2017-09-26T05:24:10.915Z,41.30
2017-09-26T05:26:37.381Z,48.37
2017-09-26T05:29:03.838Z,46.47
2017-09-26T05:31:31.031Z,42.00
2017-09-26T05:33:57.503Z,44.23
2017-09-26T05:36:24.011Z,45.00
2017-09-26T05:38:50.436Z,42.47
2017-09-26T05:41:16.890Z,43.67
2017-09-26T05:43:43.315Z,44.33
2017-09-26T05:46:09.765Z,42.03
2017-09-26T05:48:36.223Z,43.10
2017-09-26T05:51:03.406Z,39.90
2017-09-26T05:53:29.906Z,43.00
2017-09-26T05:55:57.059Z,40.97
2017-09-26T05:58:24.275Z,41.13
2017-09-26T06:00:50.698Z,41.57
2017-09-26T06:03:17.172Z,40.87
2017-09-26T06:05:44.354Z,38.00
2017-09-26T06:08:10.799Z,37.43
2017-09-26T06:10:37.406Z,36.03
2017-09-26T06:13:03.867Z,35.87
2017-09-26T06:15:30.495Z,36.80
2017-09-26T06:17:57.043Z,36.47
2017-09-26T06:20:23.491Z,37.10
2017-09-26T06:22:49.939Z,38.07
2017-09-26T06:25:16.424Z,38.07
2017-09-26T06:27:43.031Z,37.83
2017-09-26T06:30:10.215Z,38.30
2017-09-26T06:32:36.705Z,37.40
2017-09-26T06:35:03.167Z,37.80
2017-09-26T06:37:30.334Z,39.40
2017-09-26T06:39:56.813Z,36.77
2017-09-26T06:42:23.363Z,37.80
2017-09-26T06:44:49.791Z,36.97
2017-09-26T06:47:16.296Z,36.80
2017-09-26T06:49:42.774Z,36.90
2017-09-26T06:52:09.983Z,38.67
2017-09-26T06:54:36.472Z,40.70
2017-09-26T06:57:02.882Z,38.67
2017-09-26T06:59:30.071Z,39.47
2017-09-26T07:01:56.496Z,37.20
2017-09-26T07:04:22.943Z,37.30
2017-09-26T07:06:49.365Z,40.13
2017-09-26T07:09:15.799Z,38.27
2017-09-26T07:11:42.231Z,38.30
2017-09-26T07:14:08.724Z,39.23
2017-09-26T07:16:35.944Z,37.70
2017-09-26T07:19:02.438Z,36.27
2017-09-26T07:21:28.919Z,38.87
2017-09-26T07:23:55.366Z,38.10
2017-09-26T07:26:21.839Z,38.03
2017-09-26T07:28:48.286Z,36.77
2017-09-26T07:31:14.779Z,35.90
2017-09-26T07:33:42.070Z,35.43
2017-09-26T07:36:08.535Z,33.80
2017-09-26T07:38:34.970Z,35.30
2017-09-26T07:41:01.416Z,38.30
2017-09-26T07:43:27.870Z,36.00
2017-09-26T07:45:55.127Z,36.73
2017-09-26T07:48:22.366Z,35.60
2017-09-26T07:50:49.539Z,35.13
2017-09-26T07:53:15.987Z,35.83
2017-09-26T07:55:42.416Z,34.80
2017-09-26T07:58:08.898Z,34.63
2017-09-26T08:00:36.591Z,34.87
2017-09-26T08:03:03.823Z,35.20
2017-09-26T08:05:32.322Z,35.10
2017-09-26T08:08:00.690Z,33.37
2017-09-26T08:10:27.877Z,34.33
2017-09-26T08:12:54.298Z,35.67
2017-09-26T08:15:20.803Z,34.60
2017-09-26T08:17:48.005Z,33.37
2017-09-26T08:20:14.433Z,37.10
2017-09-26T08:22:40.904Z,35.70
2017-09-26T08:25:07.342Z,34.20
2017-09-26T08:27:35.274Z,34.80
2017-09-26T08:30:01.780Z,32.90
2017-09-26T08:32:28.252Z,34.83
2017-09-26T08:34:54.871Z,34.87
2017-09-26T08:37:21.319Z,33.90
2017-09-26T08:39:47.783Z,36.10
2017-09-26T08:42:14.236Z,34.23
2017-09-26T08:44:41.423Z,31.30
2017-09-26T08:47:07.856Z,32.13
2017-09-26T08:49:34.368Z,32.33
2017-09-26T08:52:00.912Z,33.37
2017-09-26T08:54:27.352Z,33.60
2017-09-26T08:56:53.903Z,32.60
2017-09-26T08:59:20.322Z,32.30
2017-09-26T09:01:46.815Z,32.43
2017-09-26T09:04:13.984Z,32.20
2017-09-26T09:06:41.174Z,35.20
2017-09-26T09:09:07.619Z,32.10
2017-09-26T09:11:34.048Z,33.00
2017-09-26T09:14:00.514Z,33.50
2017-09-26T09:16:27.697Z,30.70
2017-09-26T09:18:54.118Z,30.90
2017-09-26T09:21:20.593Z,29.33
2017-09-26T09:23:47.010Z,28.93
2017-09-26T09:26:13.431Z,29.03
2017-09-26T09:28:39.882Z,30.70
2017-09-26T09:31:06.323Z,29.03
2017-09-26T09:33:32.966Z,29.60
2017-09-26T09:35:59.386Z,26.57
2017-09-26T09:38:25.807Z,25.47
2017-09-26T09:40:52.359Z,28.60
2017-09-26T09:43:18.782Z,29.00
2017-09-26T09:45:45.272Z,29.33
2017-09-26T09:48:12.451Z,29.50
2017-09-26T09:50:38.922Z,30.43
2017-09-26T09:53:05.368Z,28.10
2017-09-26T09:55:31.867Z,28.90
2017-09-26T09:57:58.370Z,28.07
2017-09-26T10:00:24.823Z,29.23
2017-09-26T10:02:51.443Z,28.73
2017-09-26T10:05:17.870Z,27.67
2017-09-26T10:07:44.313Z,28.73
2017-09-26T10:10:10.803Z,27.27
2017-09-26T10:12:37.247Z,27.50
2017-09-26T10:15:04.634Z,28.00
2017-09-26T10:17:31.096Z,26.20
2017-09-26T10:19:57.562Z,27.40
2017-09-26T10:22:24.007Z,26.13
2017-09-26T10:24:51.243Z,26.23
2017-09-26T10:27:17.834Z,27.13
2017-09-26T10:29:44.238Z,26.37
2017-09-26T10:32:11.452Z,25.20
2017-09-26T10:34:37.912Z,27.27
2017-09-26T10:37:05.114Z,25.37
2017-09-26T10:39:31.571Z,26.70
2017-09-26T10:41:58.022Z,23.77
2017-09-26T10:44:24.635Z,23.87
2017-09-26T10:46:51.306Z,22.23
2017-09-26T10:49:18.562Z,22.27
2017-09-26T10:51:45.755Z,21.50
2017-09-26T10:54:12.187Z,21.47
2017-09-26T10:56:38.632Z,22.47
2017-09-26T10:59:05.100Z,20.60
2017-09-26T11:01:32.326Z,21.43
2017-09-26T11:03:58.772Z,19.90
2017-09-26T11:06:25.211Z,20.50
2017-09-26T11:08:51.671Z,19.27
2017-09-26T11:11:18.130Z,21.03
2017-09-26T11:13:44.551Z,21.20
2017-09-26T11:16:11.015Z,20.93
2017-09-26T11:18:37.468Z,19.73
2017-09-26T11:21:04.685Z,20.40
2017-09-26T11:23:31.106Z,20.87
2017-09-26T11:25:57.634Z,20.87
2017-09-26T11:28:24.111Z,19.43
2017-09-26T11:30:50.511Z,19.50
2017-09-26T11:33:16.949Z,19.23
2017-09-26T11:35:43.394Z,18.67
2017-09-26T11:38:09.852Z,18.20
2017-09-26T11:40:36.376Z,18.80
2017-09-26T11:43:02.850Z,17.87
2017-09-26T11:45:30.013Z,17.13
2017-09-26T11:47:56.469Z,17.37
2017-09-26T11:50:22.919Z,17.30
2017-09-26T11:52:49.355Z,17.00
2017-09-26T11:55:15.847Z,16.80
2017-09-26T11:57:42.295Z,16.10
2017-09-26T12:00:08.747Z,14.93
2017-09-26T12:02:35.294Z,16.50
2017-09-26T12:05:01.744Z,14.40
2017-09-26T12:07:28.246Z,11.67
2017-09-26T12:09:54.675Z,13.60
2017-09-26T12:12:21.134Z,11.90
2017-09-26T12:14:48.435Z,11.30
2017-09-26T12:17:14.887Z,11.63
2017-09-26T12:19:41.323Z,12.30
2017-09-26T12:22:07.780Z,13.20
2017-09-26T12:27:22.994Z,13.27
2017-09-26T12:29:50.221Z,13.33
2017-09-26T12:32:16.710Z,13.00
2017-09-26T12:34:43.327Z,14.20
2017-09-26T12:37:09.804Z,13.07
2017-09-26T12:39:36.277Z,13.47
2017-09-26T12:42:03.495Z,13.70
2017-09-26T12:44:29.931Z,14.30
2017-09-26T12:46:56.397Z,12.70
2017-09-26T12:49:23.630Z,11.90
2017-09-26T12:51:50.071Z,13.60
2017-09-26T12:54:17.278Z,14.00
2017-09-26T12:56:43.735Z,13.40
2017-09-26T12:59:10.230Z,14.40
2017-09-26T13:01:36.680Z,15.33
2017-09-26T13:04:03.119Z,14.90
2017-09-26T13:06:29.602Z,14.07
2017-09-26T13:08:56.898Z,15.30
2017-09-26T13:11:23.324Z,14.47
2017-09-26T13:13:49.735Z,15.57
2017-09-26T13:16:16.218Z,14.93
2017-09-26T13:18:42.678Z,14.17
2017-09-26T13:21:09.120Z,15.20
2017-09-26T13:23:36.346Z,13.57
2017-09-26T13:26:02.978Z,14.93
2017-09-26T13:28:29.427Z,13.10
2017-09-26T13:30:55.962Z,13.47
2017-09-26T13:33:22.406Z,13.60
2017-09-26T13:35:49.619Z,12.80
2017-09-26T13:38:16.098Z,13.27
2017-09-26T13:40:43.268Z,13.57
2017-09-26T13:43:09.758Z,12.50
2017-09-26T13:45:36.206Z,12.87
2017-09-26T13:48:03.423Z,13.03
2017-09-26T13:50:29.924Z,14.90
2017-09-26T13:52:56.374Z,13.07
2017-09-26T13:55:22.834Z,12.80
2017-09-26T13:57:49.287Z,13.13
2017-09-26T14:00:16.573Z,13.00
2017-09-26T14:02:43.028Z,12.60
2017-09-26T14:05:09.558Z,12.67
2017-09-26T14:07:36.085Z,12.00
2017-09-26T14:10:02.495Z,11.80
2017-09-26T14:12:28.968Z,12.57
2017-09-26T14:14:55.394Z,13.60
2017-09-26T14:17:21.819Z,12.93
2017-09-26T14:19:48.463Z,12.47
2017-09-26T14:22:14.900Z,12.40
2017-09-26T14:24:41.437Z,11.63
2017-09-26T14:27:07.868Z,11.20
2017-09-26T14:29:34.436Z,11.20
2017-09-26T14:32:00.872Z,10.73
2017-09-26T14:34:27.418Z,11.50
2017-09-26T14:36:54.667Z,11.20
2017-09-26T14:39:21.856Z,10.57
2017-09-26T14:41:48.319Z,10.13
2017-09-26T14:44:14.744Z,12.17
2017-09-26T14:46:41.230Z,16.67
2017-09-26T14:49:08.514Z,20.03
2017-09-26T14:51:35.139Z,21.37
2017-09-26T14:54:01.643Z,23.27
2017-09-26T14:56:28.900Z,20.80
2017-09-26T14:58:56.221Z,21.23
2017-09-26T15:01:22.728Z,20.47
2017-09-26T15:03:49.211Z,21.10
2017-09-26T15:06:16.435Z,18.80
2017-09-26T15:08:43.034Z,19.80
2017-09-26T15:11:09.500Z,17.73
2017-09-26T15:13:35.959Z,17.23
2017-09-26T15:16:02.463Z,19.90
2017-09-26T15:18:28.956Z,19.40
2017-09-26T15:20:55.443Z,19.10
2017-09-26T15:23:21.902Z,19.60
2017-09-26T15:25:49.154Z,17.23
2017-09-26T15:28:16.434Z,16.53
2017-09-26T15:30:42.907Z,17.83
2017-09-26T15:33:09.390Z,20.00
2017-09-26T15:35:36.607Z,16.20
2017-09-26T15:38:03.912Z,17.07
2017-09-26T15:40:30.601Z,17.93
2017-09-26T15:42:57.121Z,17.87
2017-09-26T15:45:23.587Z,16.43
2017-09-26T15:47:50.759Z,16.93
2017-09-26T15:50:17.266Z,17.47
2017-09-26T15:52:44.459Z,17.00
2017-09-26T15:55:10.882Z,16.80
2017-09-26T15:57:37.379Z,16.10
2017-09-26T16:00:04.590Z,16.80
2017-09-26T16:02:31.102Z,14.60
2017-09-26T16:04:57.572Z,14.73
2017-09-26T16:07:24.040Z,13.93
2017-09-26T16:09:51.260Z,13.80
2017-09-26T16:12:19.303Z,13.60
2017-09-26T16:14:45.801Z,13.70
2017-09-26T16:17:13.159Z,13.30
2017-09-26T16:19:40.391Z,13.43
2017-09-26T16:22:06.819Z,13.70
2017-09-26T16:24:33.411Z,14.37
2017-09-26T16:26:59.845Z,14.40
2017-09-26T16:29:26.352Z,14.43
2017-09-26T16:31:53.574Z,14.20
2017-09-26T16:34:20.040Z,15.13
2017-09-26T16:36:46.509Z,14.53
2017-09-26T16:39:12.947Z,16.13
2017-09-26T16:41:39.406Z,15.80
2017-09-26T16:44:05.915Z,15.30
2017-09-26T16:46:32.364Z,15.57
2017-09-26T16:48:58.842Z,17.77
2017-09-26T16:51:25.491Z,15.80
2017-09-26T16:53:51.959Z,14.63
2017-09-26T16:56:18.679Z,16.27
2017-09-26T16:58:45.195Z,16.17
2017-09-26T17:01:11.664Z,16.33
2017-09-26T17:03:38.448Z,16.43
2017-09-26T17:06:05.642Z,15.70
2017-09-26T17:08:32.175Z,15.40
2017-09-26T17:10:58.622Z,16.90
2017-09-26T17:13:25.092Z,22.20
2017-09-26T17:15:52.300Z,20.93
2017-09-26T17:18:18.883Z,19.33
2017-09-26T17:20:46.056Z,19.30
2017-09-26T17:23:12.675Z,18.03
2017-09-26T17:25:39.144Z,16.53
2017-09-26T17:28:05.678Z,19.07
2017-09-26T17:30:32.254Z,17.13
2017-09-26T17:32:58.745Z,17.60
2017-09-26T17:35:25.262Z,17.23
2017-09-26T17:37:51.725Z,18.97
2017-09-26T17:40:18.200Z,16.87
2017-09-26T17:42:45.487Z,17.50
2017-09-26T17:45:11.955Z,17.50
2017-09-26T17:47:38.560Z,18.00
2017-09-26T17:50:05.031Z,17.83
2017-09-26T17:52:31.603Z,17.77
2017-09-26T17:54:58.824Z,18.90
2017-09-26T17:57:25.278Z,18.97
2017-09-26T17:59:52.487Z,19.30
2017-09-26T18:02:18.983Z,19.00
2017-09-26T18:04:45.472Z,19.37
2017-09-26T18:07:11.921Z,17.93
2017-09-26T18:09:39.876Z,19.17
2017-09-26T18:12:06.306Z,19.87
2017-09-26T18:14:32.825Z,19.57
2017-09-26T18:16:59.254Z,21.47
2017-09-26T18:19:25.685Z,19.20
2017-09-26T18:21:52.199Z,19.87
2017-09-26T18:24:18.887Z,20.40
2017-09-26T18:26:45.428Z,20.97
2017-09-26T18:29:12.647Z,22.13
2017-09-26T18:31:39.087Z,20.87
2017-09-26T18:34:05.597Z,22.47
2017-09-26T18:36:32.196Z,25.37
2017-09-26T18:38:59.396Z,24.67
2017-09-26T18:41:25.868Z,26.50
2017-09-26T18:43:53.337Z,25.47
2017-09-26T18:46:20.550Z,24.30
2017-09-26T18:48:47.158Z,20.30
2017-09-26T18:51:13.630Z,21.20
2017-09-26T18:53:40.128Z,21.77
2017-09-26T18:56:06.566Z,21.00
2017-09-26T18:58:33.072Z,23.27
2017-09-26T19:00:59.527Z,23.77
2017-09-26T19:03:25.981Z,23.37
2017-09-26T19:05:52.534Z,23.70
2017-09-26T19:08:19.195Z,22.43
2017-09-26T19:10:46.403Z,21.40
2017-09-26T19:13:12.934Z,21.60
2017-09-26T19:15:39.409Z,20.93
2017-09-26T19:18:05.907Z,22.60
2017-09-26T19:20:32.320Z,22.73
2017-09-26T19:22:58.804Z,23.07
2017-09-26T19:25:26.030Z,21.90
2017-09-26T19:27:52.493Z,20.47
2017-09-26T19:30:19.770Z,22.33
2017-09-26T19:32:46.180Z,19.60
2017-09-26T19:35:13.631Z,22.10
2017-09-26T19:37:40.822Z,21.57
2017-09-26T19:42:57.196Z,24.10
2017-09-26T19:45:23.700Z,22.83
2017-09-26T19:47:50.189Z,19.07
2017-09-26T19:50:16.666Z,19.73
2017-09-26T19:52:43.107Z,21.07
2017-09-26T19:55:09.567Z,25.03
2017-09-26T19:57:36.848Z,26.87
2017-09-26T20:00:03.352Z,28.83
2017-09-26T20:02:29.802Z,25.03
2017-09-26T20:04:57.009Z,18.70
2017-09-26T20:07:23.562Z,20.70
2017-09-26T20:09:50.023Z,19.20
2017-09-26T20:12:17.236Z,20.40
2017-09-26T20:14:43.700Z,20.87
2017-09-26T20:17:11.154Z,20.20
2017-09-26T20:19:38.365Z,19.93
2017-09-26T20:22:04.999Z,22.23
2017-09-26T20:24:31.500Z,22.57
2017-09-26T20:26:58.033Z,22.30
2017-09-26T20:29:24.543Z,22.83
2017-09-26T20:31:51.797Z,20.27
2017-09-26T20:34:19.020Z,21.57
2017-09-26T20:36:45.529Z,21.00
2017-09-26T20:39:12.086Z,22.07
2017-09-26T20:41:38.584Z,20.93
2017-09-26T20:44:05.187Z,20.30
2017-09-26T20:46:32.446Z,21.70
2017-09-26T20:48:59.713Z,13.30
2017-09-26T20:51:26.228Z,17.87
2017-09-26T20:53:53.538Z,15.67
2017-09-26T20:56:20.050Z,16.43
2017-09-26T20:58:46.549Z,17.43
2017-09-26T21:01:13.798Z,16.13
2017-09-26T21:03:41.025Z,13.27
2017-09-26T21:06:08.283Z,9.60
2017-09-26T21:08:35.515Z,7.00
2017-09-26T21:11:02.095Z,8.10
2017-09-26T21:13:29.330Z,9.00
2017-09-26T21:15:56.539Z,7.73
2017-09-26T21:18:23.037Z,6.80
2017-09-26T21:20:50.232Z,5.70
2017-09-26T21:23:16.776Z,5.67
2017-09-26T21:25:43.236Z,8.30
2017-09-26T21:28:10.426Z,7.73
2017-09-26T21:30:36.910Z,7.33
2017-09-26T21:33:03.361Z,7.10
2017-09-26T21:35:30.763Z,6.87
2017-09-26T21:37:57.205Z,6.83
2017-09-26T21:40:23.633Z,7.80
2017-09-26T21:42:50.082Z,8.57
2017-09-26T21:45:16.531Z,7.07
2017-09-26T21:47:43.076Z,7.43
2017-09-26T21:50:10.271Z,7.23
2017-09-26T21:52:36.770Z,7.43
2017-09-26T21:55:03.948Z,7.90
2017-09-26T21:57:30.524Z,8.60
2017-09-26T21:59:57.052Z,8.50
2017-09-26T22:02:23.708Z,8.87
2017-09-26T22:04:50.178Z,8.57
2017-09-26T22:07:16.676Z,9.53
2017-09-26T22:09:43.163Z,9.77
2017-09-26T22:12:09.643Z,9.43
2017-09-26T22:14:36.126Z,8.30
2017-09-26T22:17:02.559Z,9.97
2017-09-26T22:19:29.084Z,10.60
2017-09-26T22:21:55.534Z,11.47
2017-09-26T22:24:21.982Z,10.50
2017-09-26T22:26:48.446Z,8.80
2017-09-26T22:29:14.934Z,12.03
2017-09-26T22:31:41.407Z,12.03
2017-09-26T22:34:07.871Z,9.57
2017-09-26T22:36:35.050Z,7.67
2017-09-26T22:39:01.527Z,5.27
2017-09-26T22:41:27.987Z,5.03
2017-09-26T22:43:55.302Z,6.00
2017-09-26T22:46:22.474Z,6.90
2017-09-26T22:48:49.663Z,6.20
2017-09-26T22:51:16.128Z,7.00
2017-09-26T22:53:42.624Z,5.40
2017-09-26T22:56:09.063Z,5.70
2017-09-26T22:58:35.562Z,7.07
2017-09-26T23:01:02.731Z,8.93
2017-09-26T23:03:29.910Z,10.20
2017-09-26T23:05:56.490Z,11.37
2017-09-26T23:08:23.099Z,15.37
2017-09-26T23:10:49.679Z,16.00
2017-09-26T23:13:17.012Z,16.33
2017-09-26T23:15:43.455Z,19.00
2017-09-26T23:18:10.638Z,19.03
2017-09-26T23:20:37.332Z,19.63
2017-09-26T23:23:05.256Z,22.10
2017-09-26T23:25:31.693Z,21.80
2017-09-26T23:27:58.139Z,20.70
2017-09-26T23:30:24.548Z,23.47
2017-09-26T23:32:51.022Z,20.83
2017-09-26T23:35:17.455Z,21.23
2017-09-26T23:37:43.970Z,20.90
2017-09-26T23:40:10.530Z,21.60
2017-09-26T23:42:38.459Z,20.23
2017-09-26T23:45:05.126Z,19.23
2017-09-26T23:47:31.550Z,19.37
2017-09-26T23:49:58.022Z,18.07
2017-09-26T23:52:25.207Z,19.37
2017-09-26T23:54:51.879Z,18.93
2017-09-26T23:57:18.351Z,17.40
2017-09-26T23:59:45.534Z,16.53
